createdAt,value
2023-10-18T00:01:43.155Z,43.10
2023-10-18T00:04:12.117Z,43.10
2023-10-18T00:06:39.008Z,43.10
2023-10-18T00:09:24.493Z,43.00
2023-10-18T00:11:51.138Z,42.90
2023-10-18T00:14:19.258Z,42.80
2023-10-18T00:16:46.059Z,42.80
2023-10-18T00:19:14.141Z,42.80
2023-10-18T00:21:40.870Z,42.70
2023-10-18T00:24:07.867Z,42.70
2023-10-18T00:26:34.534Z,42.80
2023-10-18T00:29:01.155Z,42.90
2023-10-18T00:31:28.548Z,43.00
2023-10-18T00:33:55.436Z,43.20
2023-10-18T00:36:22.255Z,43.00
2023-10-18T00:38:49.243Z,43.10
2023-10-18T00:41:17.244Z,43.10
2023-10-18T00:43:47.210Z,43.20
2023-10-18T00:46:16.892Z,43.20
2023-10-18T00:48:45.773Z,43.20
2023-10-18T00:51:17.016Z,43.20
2023-10-18T00:53:43.708Z,43.10
2023-10-18T00:56:12.804Z,42.90
2023-10-18T00:58:42.357Z,42.80
2023-10-18T01:01:11.673Z,42.80
2023-10-18T01:03:44.740Z,42.60
2023-10-18T01:06:19.211Z,42.50
2023-10-18T01:08:48.737Z,42.40
2023-10-18T01:11:16.044Z,42.40
2023-10-18T01:13:43.753Z,42.40
2023-10-18T01:16:21.939Z,42.50
2023-10-18T01:18:49.294Z,42.60
2023-10-18T01:21:18.704Z,42.60
2023-10-18T01:23:55.504Z,42.80
2023-10-18T01:26:24.196Z,42.90
2023-10-18T01:28:53.044Z,43.10
2023-10-18T01:31:20.273Z,43.10
2023-10-18T01:33:51.205Z,43.00
2023-10-18T01:36:19.730Z,43.00
2023-10-18T01:38:49.651Z,42.90
2023-10-18T01:41:35.484Z,43.00
2023-10-18T01:44:08.984Z,42.80
2023-10-18T01:46:36.636Z,42.80
2023-10-18T01:49:04.800Z,42.90
2023-10-18T01:51:31.500Z,42.80
2023-10-18T01:54:02.541Z,42.80
2023-10-18T01:56:29.181Z,42.80
2023-10-18T01:58:55.838Z,42.80
2023-10-18T02:01:22.554Z,43.40
2023-10-18T02:03:51.747Z,42.90
2023-10-18T02:06:18.634Z,42.90
2023-10-18T02:08:45.251Z,43.00
2023-10-18T02:11:12.872Z,42.90
2023-10-18T02:13:40.306Z,43.10
2023-10-18T02:16:17.634Z,43.10
2023-10-18T02:18:48.000Z,43.10
2023-10-18T02:21:15.554Z,43.10
2023-10-18T02:23:42.705Z,43.00
2023-10-18T02:26:31.670Z,43.00
2023-10-18T02:29:13.021Z,43.00
2023-10-18T02:31:43.152Z,42.90
2023-10-18T02:34:18.990Z,43.00
2023-10-18T02:36:57.027Z,42.80
2023-10-18T02:39:34.012Z,42.80
2023-10-18T02:42:00.646Z,42.90
2023-10-18T02:44:30.161Z,43.00
2023-10-18T02:47:05.004Z,42.90
2023-10-18T02:49:31.767Z,43.00
2023-10-18T02:51:58.687Z,43.00
2023-10-18T02:54:26.243Z,43.00
2023-10-18T02:56:53.972Z,42.90
2023-10-18T02:59:22.772Z,42.90
2023-10-18T03:01:55.287Z,42.90
2023-10-18T03:04:24.059Z,42.90
2023-10-18T03:06:56.877Z,42.90
2023-10-18T03:09:35.476Z,42.90
2023-10-18T03:12:03.690Z,42.80
2023-10-18T03:14:49.657Z,42.80
2023-10-18T03:17:36.707Z,42.80
2023-10-18T03:20:18.162Z,42.80
2023-10-18T03:22:44.789Z,42.80
2023-10-18T03:25:15.627Z,42.80
2023-10-18T03:27:51.730Z,42.80
2023-10-18T03:30:19.211Z,42.90
2023-10-18T03:32:51.541Z,42.90
2023-10-18T03:35:21.498Z,43.00
2023-10-18T03:37:48.551Z,43.00
2023-10-18T03:40:29.036Z,43.00
2023-10-18T03:42:56.231Z,43.00
2023-10-18T03:45:25.735Z,43.10
2023-10-18T03:47:59.803Z,43.10
2023-10-18T03:50:37.018Z,43.20
2023-10-18T03:53:03.911Z,43.30
2023-10-18T03:55:38.070Z,43.20
2023-10-18T03:58:09.280Z,43.30
2023-10-18T04:00:39.109Z,43.10
2023-10-18T04:03:14.310Z,43.30
2023-10-18T04:05:46.224Z,43.30
2023-10-18T04:08:18.773Z,43.30
2023-10-18T04:10:46.144Z,43.30
2023-10-18T04:13:13.334Z,43.40
2023-10-18T04:15:42.895Z,43.50
2023-10-18T04:18:09.582Z,43.50
2023-10-18T04:20:36.692Z,43.60
2023-10-18T04:23:16.110Z,43.50
2023-10-18T04:25:43.654Z,43.40
2023-10-18T04:28:13.217Z,43.30
2023-10-18T04:30:40.388Z,43.30
2023-10-18T04:33:22.963Z,43.30
2023-10-18T04:35:53.281Z,43.40
2023-10-18T04:38:38.001Z,43.40
2023-10-18T04:41:04.649Z,43.60
2023-10-18T04:43:34.099Z,43.50
2023-10-18T04:46:16.358Z,43.30
2023-10-18T04:48:52.126Z,43.30
2023-10-18T04:51:27.942Z,43.30
2023-10-18T04:53:58.709Z,43.30
2023-10-18T04:56:35.974Z,43.40
2023-10-18T04:59:17.901Z,43.50
2023-10-18T05:01:54.367Z,43.50
2023-10-18T05:04:31.409Z,43.50
2023-10-18T05:07:10.816Z,43.50
2023-10-18T05:09:43.279Z,43.50
2023-10-18T05:12:19.859Z,43.50
2023-10-18T05:14:53.864Z,43.50
2023-10-18T05:17:24.970Z,43.50
2023-10-18T05:19:52.348Z,43.50
2023-10-18T05:22:21.732Z,43.40
2023-10-18T05:24:56.137Z,43.50
2023-10-18T05:27:26.063Z,43.40
2023-10-18T05:29:53.882Z,43.40
2023-10-18T05:32:49.595Z,43.60
2023-10-18T05:35:20.941Z,43.60
2023-10-18T05:37:51.698Z,43.50
2023-10-18T05:40:37.032Z,43.50
2023-10-18T05:43:08.545Z,43.50
2023-10-18T05:45:35.349Z,43.40
2023-10-18T05:48:13.545Z,43.50
2023-10-18T05:50:40.931Z,43.60
2023-10-18T05:53:13.443Z,43.70
2023-10-18T05:55:40.192Z,43.60
2023-10-18T05:58:07.098Z,43.50
2023-10-18T06:00:34.312Z,43.60
2023-10-18T06:03:01.159Z,43.50
2023-10-18T06:05:35.073Z,43.60
2023-10-18T06:08:02.277Z,43.70
2023-10-18T06:10:29.118Z,43.60
2023-10-18T06:13:06.232Z,43.70
2023-10-18T06:15:36.126Z,43.60
2023-10-18T06:18:02.884Z,43.70
2023-10-18T06:20:30.070Z,43.80
2023-10-18T06:23:18.489Z,43.80
2023-10-18T06:25:50.541Z,43.80
2023-10-18T06:28:25.855Z,43.80
2023-10-18T06:30:53.388Z,43.90
2023-10-18T06:33:21.143Z,43.80
2023-10-18T06:35:54.335Z,43.90
2023-10-18T06:38:24.712Z,43.90
2023-10-18T06:43:31.216Z,43.90
2023-10-18T06:45:58.524Z,43.80
2023-10-18T06:48:29.653Z,43.90
2023-10-18T06:50:56.545Z,43.90
2023-10-18T06:53:23.294Z,44.00
2023-10-18T06:56:03.679Z,43.90
2023-10-18T06:58:31.077Z,43.90
2023-10-18T07:01:04.907Z,43.90
2023-10-18T07:03:38.483Z,43.90
2023-10-18T07:06:07.119Z,44.10
2023-10-18T07:08:34.299Z,44.10
2023-10-18T07:11:19.320Z,44.10
2023-10-18T07:13:48.169Z,44.10
2023-10-18T07:16:17.228Z,44.20
2023-10-18T07:18:45.383Z,44.20
2023-10-18T07:21:12.812Z,44.30
2023-10-18T07:23:41.059Z,44.40
2023-10-18T07:26:16.715Z,44.40
2023-10-18T07:28:45.604Z,44.50
2023-10-18T07:31:12.468Z,44.60
2023-10-18T07:33:42.170Z,44.60
2023-10-18T07:36:09.755Z,44.60
2023-10-18T07:38:48.041Z,44.40
2023-10-18T07:41:15.292Z,44.50
2023-10-18T07:43:44.775Z,44.50
2023-10-18T07:46:17.757Z,44.50
2023-10-18T07:48:48.917Z,45.00
2023-10-18T07:51:27.504Z,44.50
2023-10-18T07:53:55.092Z,44.50
2023-10-18T07:56:28.570Z,44.50
2023-10-18T07:58:56.708Z,44.60
2023-10-18T08:01:58.742Z,44.60
2023-10-18T08:04:25.596Z,44.60
2023-10-18T08:06:52.394Z,44.70
2023-10-18T08:09:21.172Z,44.70
2023-10-18T08:11:51.843Z,44.80
2023-10-18T08:14:20.175Z,44.70
2023-10-18T08:16:54.664Z,44.60
2023-10-18T08:19:24.258Z,44.70
2023-10-18T08:22:06.580Z,44.70
2023-10-18T08:24:36.380Z,44.80
2023-10-18T08:27:10.483Z,44.80
2023-10-18T08:29:40.199Z,44.80
2023-10-18T08:32:16.190Z,44.90
2023-10-18T08:34:44.199Z,44.80
2023-10-18T08:37:17.257Z,43.80
2023-10-18T08:39:57.048Z,43.70
2023-10-18T08:42:31.145Z,43.60
2023-10-18T08:44:57.845Z,43.60
2023-10-18T08:47:31.221Z,43.60
2023-10-18T08:49:57.984Z,43.50
2023-10-18T08:52:25.206Z,43.50
2023-10-18T08:54:52.388Z,43.40
2023-10-18T08:57:37.124Z,43.30
2023-10-18T09:00:22.580Z,43.30
2023-10-18T09:02:49.431Z,43.10
2023-10-18T09:05:16.213Z,43.00
2023-10-18T09:07:45.563Z,42.70
2023-10-18T09:10:33.988Z,42.90
2023-10-18T09:13:12.571Z,42.90
2023-10-18T09:15:59.764Z,42.80
2023-10-18T09:18:27.458Z,42.60
2023-10-18T09:20:57.007Z,42.20
2023-10-18T09:23:30.997Z,42.20
2023-10-18T09:26:19.528Z,42.10
2023-10-18T09:28:47.620Z,42.10
2023-10-18T09:31:22.492Z,42.10
2023-10-18T09:33:50.996Z,41.80
2023-10-18T09:36:24.681Z,41.50
2023-10-18T09:38:55.517Z,41.20
2023-10-18T09:41:22.413Z,40.90
2023-10-18T09:43:50.271Z,40.50
2023-10-18T09:46:17.216Z,40.20
2023-10-18T09:48:47.652Z,39.20
2023-10-18T09:51:16.272Z,38.90
2023-10-18T09:53:52.607Z,38.60
2023-10-18T09:56:26.103Z,37.90
2023-10-18T09:58:53.111Z,36.70
2023-10-18T10:01:30.806Z,36.40
2023-10-18T10:03:57.825Z,35.80
2023-10-18T10:06:26.074Z,35.30
2023-10-18T10:09:14.307Z,34.70
2023-10-18T10:11:50.162Z,34.00
2023-10-18T10:14:17.658Z,34.10
2023-10-18T10:16:58.106Z,33.80
2023-10-18T10:19:32.231Z,33.60
2023-10-18T10:22:08.290Z,33.10
2023-10-18T10:24:45.282Z,33.10
2023-10-18T10:27:33.989Z,32.90
2023-10-18T10:30:20.806Z,33.20
2023-10-18T10:32:48.006Z,33.00
2023-10-18T10:35:19.001Z,32.90
2023-10-18T10:37:55.830Z,33.10
2023-10-18T10:40:29.750Z,32.90
2023-10-18T10:43:13.814Z,32.90
2023-10-18T10:45:48.102Z,32.80
2023-10-18T10:48:17.952Z,33.10
2023-10-18T10:50:53.958Z,32.90
2023-10-18T10:53:45.277Z,33.20
2023-10-18T10:56:18.757Z,32.90
2023-10-18T10:58:55.715Z,33.40
2023-10-18T11:01:58.650Z,33.50
2023-10-18T11:04:46.809Z,33.50
2023-10-18T11:07:14.614Z,33.10
2023-10-18T11:09:43.762Z,32.90
2023-10-18T11:12:18.922Z,32.90
2023-10-18T11:14:51.209Z,32.20
2023-10-18T11:17:18.006Z,31.50
2023-10-18T11:19:45.957Z,31.50
2023-10-18T11:22:12.939Z,30.90
2023-10-18T11:24:40.932Z,30.40
2023-10-18T11:27:11.069Z,30.20
2023-10-18T11:29:42.740Z,29.80
2023-10-18T11:32:16.654Z,29.90
2023-10-18T11:34:46.656Z,29.80
2023-10-18T11:37:32.647Z,29.80
2023-10-18T11:40:05.678Z,29.30
2023-10-18T11:42:52.456Z,29.20
2023-10-18T11:45:21.218Z,29.90
2023-10-18T11:47:54.024Z,29.40
2023-10-18T11:50:25.138Z,29.30
2023-10-18T11:52:53.418Z,29.30
2023-10-18T11:55:24.035Z,28.80
2023-10-18T11:57:51.138Z,28.40
2023-10-18T12:00:23.546Z,28.30
2023-10-18T12:02:50.365Z,27.70
2023-10-18T12:05:21.262Z,27.20
2023-10-18T12:07:49.761Z,28.50
2023-10-18T12:10:29.380Z,27.20
2023-10-18T12:12:59.241Z,26.70
2023-10-18T12:15:31.388Z,26.00
2023-10-18T12:17:58.125Z,26.10
2023-10-18T12:20:36.046Z,25.70
2023-10-18T12:23:12.500Z,25.40
2023-10-18T12:25:43.995Z,24.90
2023-10-18T12:28:14.287Z,24.90
2023-10-18T12:30:42.377Z,24.80
2023-10-18T12:33:15.597Z,24.20
2023-10-18T12:35:42.617Z,24.10
2023-10-18T12:38:15.157Z,24.20
2023-10-18T12:40:56.033Z,24.30
2023-10-18T12:43:23.134Z,24.20
2023-10-18T12:45:52.967Z,24.40
2023-10-18T12:48:25.622Z,24.30
2023-10-18T12:50:52.526Z,24.20
2023-10-18T12:53:25.989Z,24.80
2023-10-18T12:55:59.622Z,24.60
2023-10-18T12:58:33.081Z,24.90
2023-10-18T13:01:15.548Z,24.90
2023-10-18T13:03:58.301Z,25.50
2023-10-18T13:06:32.062Z,25.60
2023-10-18T13:09:20.121Z,26.20
2023-10-18T13:11:53.707Z,25.70
2023-10-18T13:14:31.028Z,25.60
2023-10-18T13:17:01.084Z,25.70
2023-10-18T13:19:29.275Z,25.70
2023-10-18T13:21:56.421Z,25.70
2023-10-18T13:24:25.914Z,25.50
2023-10-18T13:26:54.349Z,25.80
2023-10-18T13:29:21.576Z,25.70
2023-10-18T13:31:48.617Z,26.10
2023-10-18T13:34:21.159Z,26.10
2023-10-18T13:36:53.827Z,26.20
2023-10-18T13:39:21.642Z,26.40
2023-10-18T13:41:48.515Z,26.50
2023-10-18T13:44:15.918Z,26.70
2023-10-18T13:46:55.299Z,26.70
2023-10-18T13:49:29.688Z,26.90
2023-10-18T13:51:56.506Z,27.40
2023-10-18T13:54:23.403Z,27.40
2023-10-18T13:56:50.208Z,27.40
2023-10-18T13:59:18.974Z,27.40
2023-10-18T14:01:50.484Z,27.60
2023-10-18T14:04:25.114Z,27.70
2023-10-18T14:06:55.421Z,28.10
2023-10-18T14:09:24.256Z,27.90
2023-10-18T14:11:52.522Z,28.00
2023-10-18T14:14:19.378Z,28.30
2023-10-18T14:16:47.291Z,28.20
2023-10-18T14:19:14.317Z,28.10
2023-10-18T14:21:43.339Z,28.30
2023-10-18T14:24:16.193Z,28.50
2023-10-18T14:26:44.802Z,28.60
2023-10-18T14:29:12.772Z,28.60
2023-10-18T14:31:39.703Z,28.50
2023-10-18T14:34:06.448Z,28.90
2023-10-18T14:36:33.818Z,28.70
2023-10-18T14:39:01.053Z,28.70
2023-10-18T14:41:32.644Z,28.70
2023-10-18T14:44:00.621Z,28.70
2023-10-18T14:46:30.768Z,29.00
2023-10-18T14:48:59.838Z,29.10
2023-10-18T14:51:26.688Z,29.10
2023-10-18T14:53:53.914Z,29.10
2023-10-18T14:56:21.306Z,29.10
2023-10-18T14:58:48.560Z,28.90
2023-10-18T15:01:16.435Z,29.00
2023-10-18T15:03:47.453Z,29.20
2023-10-18T15:06:20.984Z,29.30
2023-10-18T15:08:50.406Z,29.20
2023-10-18T15:11:20.931Z,29.20
2023-10-18T15:13:48.524Z,29.30
2023-10-18T15:16:19.255Z,29.20
2023-10-18T15:18:49.891Z,29.20
2023-10-18T15:21:17.062Z,29.20
2023-10-18T15:23:46.863Z,29.30
2023-10-18T15:26:17.850Z,29.20
2023-10-18T15:28:45.038Z,29.30
2023-10-18T15:31:12.838Z,29.30
2023-10-18T15:33:41.138Z,29.70
2023-10-18T15:36:22.197Z,29.90
2023-10-18T15:38:53.536Z,29.50
2023-10-18T15:41:23.172Z,29.50
2023-10-18T15:43:52.252Z,29.60
2023-10-18T15:46:34.647Z,29.80
2023-10-18T15:49:01.610Z,29.80
2023-10-18T15:51:28.950Z,29.70
2023-10-18T15:53:58.443Z,29.70
2023-10-18T15:56:27.487Z,29.70
2023-10-18T15:58:59.555Z,29.80
2023-10-18T16:01:28.013Z,29.80
2023-10-18T16:03:56.273Z,29.90
2023-10-18T16:06:23.048Z,30.00
2023-10-18T16:08:50.097Z,30.00
2023-10-18T16:11:17.114Z,30.00
2023-10-18T16:13:43.938Z,30.20
2023-10-18T16:16:11.256Z,30.20
2023-10-18T16:18:39.151Z,30.30
2023-10-18T16:21:10.490Z,30.10
2023-10-18T16:23:40.990Z,30.00
2023-10-18T16:26:26.032Z,30.50
2023-10-18T16:28:53.193Z,30.10
2023-10-18T16:31:21.296Z,30.20
2023-10-18T16:33:49.528Z,30.40
2023-10-18T16:36:17.393Z,30.60
2023-10-18T16:38:44.854Z,31.20
2023-10-18T16:41:14.430Z,30.60
2023-10-18T16:43:42.198Z,30.70
2023-10-18T16:46:12.881Z,30.80
2023-10-18T16:48:40.443Z,30.70
2023-10-18T16:51:07.783Z,30.80
2023-10-18T16:53:34.933Z,30.90
2023-10-18T16:56:01.681Z,31.00
2023-10-18T16:58:28.349Z,32.10
2023-10-18T17:01:03.339Z,32.40
2023-10-18T17:03:30.507Z,32.30
2023-10-18T17:05:58.661Z,32.10
2023-10-18T17:08:27.359Z,32.20
2023-10-18T17:10:54.844Z,32.30
2023-10-18T17:13:24.363Z,32.40
2023-10-18T17:15:51.751Z,32.60
2023-10-18T17:18:18.535Z,32.80
2023-10-18T17:20:49.392Z,32.80
2023-10-18T17:23:24.728Z,32.80
2023-10-18T17:25:51.379Z,32.80
2023-10-18T17:28:19.478Z,33.00
2023-10-18T17:30:46.222Z,33.10
2023-10-18T17:33:13.928Z,33.20
2023-10-18T17:35:43.673Z,33.30
2023-10-18T17:38:14.059Z,33.50
2023-10-18T17:40:41.080Z,33.70
2023-10-18T17:43:07.711Z,33.80
2023-10-18T17:45:34.440Z,33.90
2023-10-18T17:48:05.317Z,34.10
2023-10-18T17:50:33.665Z,34.20
2023-10-18T17:53:00.569Z,34.30
2023-10-18T17:55:27.249Z,34.30
2023-10-18T17:57:59.236Z,34.70
2023-10-18T18:00:26.978Z,34.70
2023-10-18T18:02:57.480Z,34.60
2023-10-18T18:05:24.985Z,34.70
2023-10-18T18:07:52.260Z,35.30
2023-10-18T18:10:19.151Z,35.10
2023-10-18T18:12:48.863Z,35.10
2023-10-18T18:15:15.733Z,35.10
2023-10-18T18:17:43.167Z,35.30
2023-10-18T18:20:12.657Z,35.40
2023-10-18T18:22:42.614Z,35.50
2023-10-18T18:25:09.777Z,35.80
2023-10-18T18:27:36.404Z,35.70
2023-10-18T18:30:08.363Z,35.80
2023-10-18T18:32:35.266Z,36.00
2023-10-18T18:35:02.103Z,35.90
2023-10-18T18:37:28.812Z,36.10
2023-10-18T18:39:55.526Z,36.30
2023-10-18T18:42:23.029Z,36.40
2023-10-18T18:44:49.763Z,36.40
2023-10-18T18:47:16.607Z,36.50
2023-10-18T18:49:43.376Z,36.60
2023-10-18T18:52:09.995Z,36.60
2023-10-18T18:54:36.622Z,36.50
2023-10-18T18:57:04.638Z,36.60
2023-10-18T18:59:32.009Z,36.70
2023-10-18T19:01:58.825Z,36.80
2023-10-18T19:04:26.644Z,37.00
2023-10-18T19:06:53.492Z,37.10
2023-10-18T19:09:20.103Z,37.60
2023-10-18T19:11:46.800Z,37.10
2023-10-18T19:14:13.512Z,37.30
2023-10-18T19:16:40.244Z,37.10
2023-10-18T19:19:06.904Z,37.20
2023-10-18T19:21:34.823Z,37.30
2023-10-18T19:24:02.044Z,37.30
2023-10-18T19:26:28.690Z,37.20
2023-10-18T19:28:55.431Z,37.30
2023-10-18T19:31:22.111Z,37.60
2023-10-18T19:33:50.307Z,37.60
2023-10-18T19:36:18.452Z,37.50
2023-10-18T19:38:45.640Z,37.60
2023-10-18T19:41:15.045Z,37.60
2023-10-18T19:43:42.700Z,37.70
2023-10-18T19:46:10.563Z,37.80
2023-10-18T19:48:39.790Z,38.00
2023-10-18T19:51:09.752Z,37.90
2023-10-18T19:53:38.730Z,37.90
2023-10-18T19:56:10.844Z,37.90
2023-10-18T19:58:37.557Z,38.20
2023-10-18T20:01:04.203Z,38.10
2023-10-18T20:03:31.059Z,38.20
2023-10-18T20:06:01.496Z,38.20
2023-10-18T20:08:28.224Z,38.50
2023-10-18T20:10:54.930Z,38.50
2023-10-18T20:13:22.058Z,38.60
2023-10-18T20:15:48.737Z,38.60
2023-10-18T20:18:15.431Z,38.70
2023-10-18T20:20:42.235Z,38.90
2023-10-18T20:23:08.931Z,39.00
2023-10-18T20:25:36.589Z,39.40
2023-10-18T20:28:03.330Z,39.60
2023-10-18T20:30:30.803Z,39.60
2023-10-18T20:32:57.947Z,39.70
2023-10-18T20:35:26.613Z,40.00
2023-10-18T20:37:53.394Z,40.10
2023-10-18T20:40:20.202Z,40.40
2023-10-18T20:42:48.080Z,40.50
2023-10-18T20:45:18.737Z,40.50
2023-10-18T20:47:45.639Z,40.70
2023-10-18T20:50:24.465Z,40.60
2023-10-18T20:52:53.117Z,41.10
2023-10-18T20:55:24.346Z,40.80
2023-10-18T20:57:51.406Z,41.00
2023-10-18T21:00:24.486Z,41.00
2023-10-18T21:02:51.927Z,41.20
2023-10-18T21:05:30.311Z,41.20
2023-10-18T21:08:00.042Z,41.50
2023-10-18T21:10:30.711Z,41.40
2023-10-18T21:12:58.787Z,41.50
2023-10-18T21:15:29.423Z,41.70
2023-10-18T21:17:56.048Z,41.70
2023-10-18T21:20:23.848Z,41.80
2023-10-18T21:22:54.259Z,41.80
2023-10-18T21:25:21.009Z,41.70
2023-10-18T21:27:47.790Z,41.90
2023-10-18T21:30:15.346Z,42.00
2023-10-18T21:32:42.652Z,41.80
2023-10-18T21:35:12.151Z,41.80
2023-10-18T21:37:39.533Z,41.70
2023-10-18T21:40:10.466Z,41.70
2023-10-18T21:42:38.136Z,41.90
2023-10-18T21:45:09.350Z,41.90
2023-10-18T21:47:36.230Z,42.10
2023-10-18T21:50:03.089Z,42.00
2023-10-18T21:52:30.185Z,42.00
2023-10-18T21:54:57.589Z,41.80
2023-10-18T21:57:26.582Z,41.80
2023-10-18T21:59:53.995Z,42.00
2023-10-18T22:02:21.885Z,41.80
2023-10-18T22:04:52.781Z,41.80
2023-10-18T22:07:19.697Z,42.00
2023-10-18T22:09:53.983Z,41.80
2023-10-18T22:12:21.837Z,41.80
2023-10-18T22:14:48.724Z,41.80
2023-10-18T22:17:15.883Z,41.70
2023-10-18T22:19:51.108Z,41.70
2023-10-18T22:22:23.585Z,41.60
2023-10-18T22:24:50.320Z,41.60
2023-10-18T22:27:17.695Z,41.70
2023-10-18T22:29:48.508Z,41.70
2023-10-18T22:32:19.446Z,41.70
2023-10-18T22:34:47.563Z,41.80
2023-10-18T22:37:14.449Z,41.80
2023-10-18T22:39:45.382Z,41.90
2023-10-18T22:42:16.005Z,42.00
2023-10-18T22:44:51.681Z,42.10
2023-10-18T22:47:21.943Z,41.90
2023-10-18T22:49:56.305Z,42.00
2023-10-18T22:52:40.653Z,42.10
2023-10-18T22:55:26.077Z,42.70
2023-10-18T22:57:58.873Z,42.30
2023-10-18T23:00:32.504Z,42.50
2023-10-18T23:03:03.983Z,42.50
2023-10-18T23:05:30.730Z,43.00
2023-10-18T23:08:00.854Z,43.10
2023-10-18T23:10:48.949Z,43.20
2023-10-18T23:13:37.091Z,43.50
2023-10-18T23:16:10.847Z,43.60
2023-10-18T23:18:37.620Z,43.80
2023-10-18T23:21:14.238Z,43.90
2023-10-18T23:23:55.467Z,44.10
2023-10-18T23:26:41.193Z,44.50
2023-10-18T23:29:09.461Z,44.50
2023-10-18T23:31:45.590Z,44.70
2023-10-18T23:34:25.391Z,44.80
2023-10-18T23:37:05.617Z,44.90
2023-10-18T23:39:41.225Z,45.00
2023-10-18T23:42:15.534Z,45.10
2023-10-18T23:44:54.878Z,46.00
2023-10-18T23:47:51.175Z,45.60
2023-10-18T23:50:43.823Z,45.80
2023-10-18T23:53:13.296Z,45.80
2023-10-18T23:55:52.812Z,46.00
2023-10-18T23:58:22.966Z,45.90
